Time;durP1;ratioP1;P1;durP2;ratioP2;P2;SDS_P1;SDS_P2;PMS_P1;PMS_P2;Temp;Humidity;BMP_temperature;BMP_pressure;BME280_temperature;BME280_humidity;BME280_pressure;Samples;Min_cycle;Max_cycle;Signal;HPM_P1;HPM_P2
2021/07/30 00:02:22;;;;;;;0.10;0.10;;;;;;;12.66;79.80;100269.38;5030693;28;20474;-87
2021/07/30 00:04:56;;;;;;;0.10;0.10;;;;;;;12.55;80.05;100255.94;5031059;28;20049;-87
2021/07/30 00:07:29;;;;;;;0.17;0.17;;;;;;;12.68;79.48;100276.16;5034713;28;20076;-87
2021/07/30 00:10:04;;;;;;;0.20;0.20;;;;;;;12.62;79.00;100263.69;5029630;28;20049;-87
2021/07/30 00:12:32;;;;;;;0.20;0.20;;;;;;;12.69;79.48;100274.22;5028401;28;20049;-86
2021/07/30 00:15:06;;;;;;;0.15;0.15;;;;;;;12.53;80.55;100269.06;5030873;28;20044;-87
2021/07/30 00:17:36;;;;;;;0.20;0.20;;;;;;;12.47;81.25;100245.72;5029865;28;20061;-87
2021/07/30 00:20:10;;;;;;;0.20;0.20;;;;;;;12.57;79.11;100267.34;5030987;28;20486;-88
2021/07/30 00:22:43;;;;;;;0.15;0.15;;;;;;;12.53;79.91;100268.28;5019822;28;20053;-87
2021/07/30 00:25:13;;;;;;;0.20;0.20;;;;;;;12.57;79.31;100269.28;5030134;28;20045;-87
2021/07/30 00:27:46;;;;;;;0.10;0.10;;;;;;;12.53;79.85;100260.88;5027102;28;20037;-87
2021/07/30 00:30:20;;;;;;;0.10;0.10;;;;;;;12.41;80.84;100263.31;5029387;28;20049;-87
2021/07/30 00:32:47;;;;;;;0.10;0.10;;;;;;;12.42;79.23;100271.19;5029226;28;20045;-86
2021/07/30 00:35:20;;;;;;;0.13;0.13;;;;;;;12.53;79.21;100254.63;5029384;28;20061;-87
2021/07/30 00:37:55;;;;;;;0.13;0.13;;;;;;;12.51;79.27;100254.94;5026694;28;20057;-87
2021/07/30 00:40:24;;;;;;;0.20;0.20;;;;;;;12.54;78.97;100262.50;5025241;28;20057;-87
2021/07/30 00:43:01;;;;;;;0.17;0.17;;;;;;;12.46;79.55;100259.69;5032610;28;20596;-86
2021/07/30 00:45:34;;;;;;;0.10;0.10;;;;;;;12.52;80.15;100261.19;5029629;28;20060;-87
2021/07/30 00:48:08;;;;;;;0.10;0.10;;;;;;;12.45;78.26;100258.84;5030133;28;20057;-87
2021/07/30 00:50:43;;;;;;;0.20;0.20;;;;;;;12.53;79.18;100263.59;5024811;28;20040;-87
2021/07/30 00:53:18;;;;;;;0.10;0.10;;;;;;;12.63;78.52;100261.78;5033208;28;20053;-87
2021/07/30 00:55:54;;;;;;;0.10;0.10;;;;;;;12.50;79.29;100261.50;5044563;28;20061;-87
2021/07/30 00:58:22;;;;;;;0.10;0.10;;;;;;;12.50;78.15;100252.50;5030485;28;20045;-88
2021/07/30 01:00:56;;;;;;;0.20;0.20;;;;;;;12.51;78.30;100260.38;5033373;28;20468;-87
2021/07/30 01:03:31;;;;;;;0.10;0.10;;;;;;;12.43;78.27;100250.19;5034620;28;20058;-87
2021/07/30 01:06:04;;;;;;;0.10;0.10;;;;;;;12.61;78.05;100262.09;5032897;28;20057;-87
2021/07/30 01:08:39;;;;;;;0.20;0.20;;;;;;;12.46;78.20;100262.41;5034322;28;20765;-88
2021/07/30 01:11:08;;;;;;;0.20;0.20;;;;;;;12.52;78.01;100264.72;5033165;28;20053;-86
2021/07/30 01:13:49;;;;;;;0.17;0.17;;;;;;;12.52;78.77;100255.72;5020630;28;20045;-86
2021/07/30 01:16:22;;;;;;;0.10;0.10;;;;;;;12.30;78.76;100246.31;5023841;28;20057;-87
2021/07/30 01:18:50;;;;;;;0.20;0.20;;;;;;;12.29;79.96;100257.53;5030947;28;20049;-86
2021/07/30 01:21:30;;;;;;;0.20;0.20;;;;;;;12.32;78.56;100257.75;5022685;28;20049;-87
2021/07/30 01:24:05;;;;;;;0.10;0.10;;;;;;;12.28;79.51;100258.63;5033031;28;20049;-87
2021/07/30 01:26:34;;;;;;;0.20;0.20;;;;;;;12.24;80.46;100263.91;5034438;28;20045;-87
2021/07/30 01:29:03;;;;;;;0.10;0.10;;;;;;;12.24;80.95;100261.97;5029731;28;20054;-87
2021/07/30 01:31:31;;;;;;;0.20;0.20;;;;;;;12.19;81.15;100255.81;5032098;28;20410;-87
2021/07/30 01:34:05;;;;;;;0.20;0.20;;;;;;;12.24;79.57;100255.72;5032925;28;20050;-87
2021/07/30 01:36:34;;;;;;;0.20;0.20;;;;;;;12.13;79.96;100238.72;5033306;28;20053;-87
2021/07/30 01:39:08;;;;;;;0.10;0.10;;;;;;;12.03;81.16;100247.91;5034853;28;20045;-87
2021/07/30 01:41:41;;;;;;;0.10;0.10;;;;;;;12.10;80.57;100257.59;5032265;28;20046;-87
2021/07/30 01:44:15;;;;;;;0.15;0.15;;;;;;;12.07;80.87;100256.31;5034160;28;20060;-88
2021/07/30 01:46:49;;;;;;;0.15;0.15;;;;;;;12.11;79.73;100249.13;5034023;28;20057;-86
2021/07/30 01:49:22;;;;;;;0.17;0.17;;;;;;;12.09;81.12;100248.63;5034229;28;20056;-86
2021/07/30 01:51:51;;;;;;;0.10;0.10;;;;;;;12.06;79.70;100249.22;5031898;28;20056;-88
2021/07/30 01:54:25;;;;;;;0.10;0.10;;;;;;;12.02;81.04;100250.94;5033145;28;20052;-87
2021/07/30 01:56:58;;;;;;;0.20;0.20;;;;;;;12.05;80.59;100262.03;5034139;28;20042;-87
2021/07/30 01:59:32;;;;;;;0.10;0.10;;;;;;;11.98;80.74;100255.38;5033676;28;20401;-87
2021/07/30 02:02:00;;;;;;;0.15;0.15;;;;;;;11.89;81.71;100260.66;5031528;28;20045;-86
2021/07/30 02:04:28;;;;;;;0.20;0.20;;;;;;;11.87;82.75;100251.97;5027054;28;20098;-87
2021/07/30 02:06:56;;;;;;;0.20;0.20;;;;;;;11.70;82.75;100245.16;5032868;28;20064;-86
2021/07/30 02:09:32;;;;;;;0.10;0.10;;;;;;;11.81;82.07;100251.25;5033958;28;20474;-87
2021/07/30 02:12:08;;;;;;;0.15;0.15;;;;;;;11.80;81.61;100246.91;5033348;28;20029;-87
2021/07/30 02:14:36;;;;;;;0.20;0.20;;;;;;;11.86;81.50;100243.00;5033667;28;20049;-87
2021/07/30 02:17:09;;;;;;;0.10;0.10;;;;;;;11.60;82.97;100233.59;5033559;28;20045;-87
2021/07/30 02:19:37;;;;;;;0.10;0.10;;;;;;;11.65;82.51;100253.41;5033663;28;20049;-87
2021/07/30 02:22:15;;;;;;;0.20;0.20;;;;;;;11.65;82.18;100249.88;5019357;28;20413;-87
2021/07/30 02:24:50;;;;;;;0.20;0.20;;;;;;;11.59;83.08;100251.88;5022461;28;20053;-87
2021/07/30 02:27:23;;;;;;;0.10;0.10;;;;;;;11.55;83.15;100257.09;5031942;28;20155;-87
2021/07/30 02:29:51;;;;;;;0.13;0.13;;;;;;;11.46;83.88;100256.19;5032169;28;20058;-87
2021/07/30 02:32:19;;;;;;;0.20;0.20;;;;;;;11.42;83.10;100260.59;5031460;28;20379;-87
2021/07/30 02:34:58;;;;;;;0.10;0.10;;;;;;;11.45;83.57;100253.72;5033799;28;20053;-87
2021/07/30 02:37:31;;;;;;;0.10;0.10;;;;;;;11.36;83.68;100257.13;5032103;28;20057;-87
2021/07/30 02:40:07;;;;;;;0.10;0.10;;;;;;;11.37;84.25;100255.22;5029301;28;20494;-87
2021/07/30 02:42:40;;;;;;;0.10;0.10;;;;;;;11.27;84.00;100250.75;5027064;28;20037;-87
2021/07/30 02:45:43;;;;;;;0.13;0.13;;;;;;;11.26;84.34;100251.84;5048456;28;20056;-87
2021/07/30 02:48:16;;;;;;;0.17;0.17;;;;;;;11.24;85.50;100245.84;5033432;28;20045;-88
2021/07/30 02:50:50;;;;;;;0.20;0.20;;;;;;;11.16;85.60;100246.56;5033634;28;20049;-87
2021/07/30 02:53:23;;;;;;;0.10;0.10;;;;;;;11.09;84.98;100255.09;5029421;28;20490;-87
2021/07/30 02:55:57;;;;;;;0.10;0.10;;;;;;;11.08;84.92;100253.44;5031986;28;20486;-88
2021/07/30 02:58:33;;;;;;;0.10;0.10;;;;;;;11.09;84.89;100259.69;5032876;28;20041;-87
2021/07/30 03:01:06;;;;;;;0.20;0.20;;;;;;;11.04;84.64;100261.38;5031618;28;20057;-87
2021/07/30 03:03:39;;;;;;;0.20;0.20;;;;;;;10.95;85.51;100254.16;5015396;28;20517;-87
2021/07/30 03:06:12;;;;;;;0.10;0.10;;;;;;;11.01;86.28;100253.81;5027656;28;20406;-87
2021/07/30 03:08:45;;;;;;;0.20;0.20;;;;;;;10.96;86.49;100250.34;5024244;28;20041;-86
2021/07/30 03:11:41;;;;;;;0.10;0.10;;;;;;;10.94;85.80;100241.66;5027612;28;20064;-87
2021/07/30 03:14:15;;;;;;;0.20;0.20;;;;;;;10.97;86.66;100251.97;5046394;28;20049;-86
2021/07/30 03:16:43;;;;;;;0.10;0.10;;;;;;;10.96;85.62;100245.72;5031386;28;20061;-87
2021/07/30 03:19:16;;;;;;;0.10;0.10;;;;;;;10.95;86.38;100244.09;5027805;28;20508;-86
2021/07/30 03:21:49;;;;;;;0.10;0.10;;;;;;;11.00;84.76;100251.38;5030872;28;20057;-86
2021/07/30 03:24:27;;;;;;;0.10;0.10;;;;;;;10.99;85.54;100244.31;5026636;28;20057;-87
2021/07/30 03:27:01;;;;;;;0.10;0.10;;;;;;;10.84;86.29;100239.88;5027838;28;20482;-86
2021/07/30 03:29:34;;;;;;;0.20;0.20;;;;;;;10.90;85.71;100246.88;5028841;28;20490;-86
2021/07/30 03:32:11;;;;;;;0.13;0.13;;;;;;;10.90;84.52;100249.63;5029665;28;20048;-87
2021/07/30 03:34:45;;;;;;;0.20;0.20;;;;;;;10.89;86.46;100253.44;5032700;28;20507;-87
2021/07/30 03:37:39;;;;;;;0.10;0.10;;;;;;;10.93;85.30;100249.03;5023044;28;20080;-87
2021/07/30 03:40:13;;;;;;;0.10;0.10;;;;;;;10.86;85.29;100249.38;5031559;28;20041;-87
2021/07/30 03:42:48;;;;;;;0.20;0.20;;;;;;;10.83;85.57;100243.72;5027121;28;20489;-87
2021/07/30 03:45:23;;;;;;;0.10;0.10;;;;;;;10.86;85.52;100248.56;5030940;28;20049;-87
2021/07/30 03:47:56;;;;;;;0.10;0.10;;;;;;;10.92;85.37;100247.41;5030919;28;20049;-86
2021/07/30 03:50:30;;;;;;;0.20;0.20;;;;;;;10.79;85.97;100250.84;5032388;28;20445;-87
2021/07/30 03:53:03;;;;;;;0.20;0.20;;;;;;;10.83;86.46;100241.81;5030585;28;20517;-86
2021/07/30 03:55:31;;;;;;;0.10;0.10;;;;;;;10.82;86.77;100242.09;5016718;28;20049;-87
2021/07/30 03:58:01;;;;;;;0.20;0.20;;;;;;;10.84;86.04;100243.44;5031626;28;20053;-87
2021/07/30 04:00:34;;;;;;;0.20;0.20;;;;;;;10.83;86.45;100243.72;5025180;28;20061;-88
2021/07/30 04:03:07;;;;;;;0.10;0.10;;;;;;;10.81;86.57;100244.03;5028713;28;20045;-87
2021/07/30 04:05:40;;;;;;;0.10;0.10;;;;;;;10.88;86.72;100249.09;5030948;28;20061;-86
2021/07/30 04:08:13;;;;;;;0.20;0.20;;;;;;;10.91;87.02;100247.69;5031701;28;20042;-86
2021/07/30 04:10:47;;;;;;;0.10;0.10;;;;;;;10.92;86.72;100241.94;5030858;28;20055;-87
2021/07/30 04:13:21;;;;;;;0.20;0.20;;;;;;;10.85;86.39;100236.06;5020128;28;20113;-89
2021/07/30 04:15:50;;;;;;;0.20;0.20;;;;;;;11.02;85.15;100249.16;5032581;28;20052;-88
2021/07/30 04:18:18;;;;;;;0.10;0.10;;;;;;;10.93;85.23;100229.16;5034737;28;20053;-88
2021/07/30 04:21:16;;;;;;;0.20;0.20;;;;;;;11.04;85.22;100244.25;5035128;28;20045;-87
2021/07/30 04:23:49;;;;;;;0.10;0.10;;;;;;;11.04;85.44;100244.25;5032969;28;20041;-87
2021/07/30 04:26:23;;;;;;;0.17;0.17;;;;;;;11.03;86.38;100248.91;5021598;28;20045;-87
2021/07/30 04:28:59;;;;;;;0.20;0.20;;;;;;;11.17;84.59;100248.97;5036079;28;20116;-88
2021/07/30 04:31:33;;;;;;;0.15;0.15;;;;;;;11.18;84.12;100247.06;5035615;28;20062;-88
2021/07/30 04:34:01;;;;;;;0.20;0.20;;;;;;;11.18;84.51;100256.03;5034742;28;20814;-88
2021/07/30 04:36:34;;;;;;;0.10;0.10;;;;;;;11.25;85.34;100249.41;5035729;28;20041;-87
2021/07/30 04:39:08;;;;;;;0.20;0.20;;;;;;;11.25;84.77;100246.69;5021251;28;20049;-86
2021/07/30 04:41:41;;;;;;;0.10;0.10;;;;;;;11.37;83.64;100239.69;5025755;28;20054;-87
2021/07/30 04:44:15;;;;;;;0.10;0.10;;;;;;;11.43;83.60;100247.78;5033569;28;20052;-86
2021/07/30 04:47:15;;;;;;;0.10;0.10;;;;;;;11.53;83.17;100242.97;5033884;28;20413;-87
2021/07/30 04:49:48;;;;;;;0.10;0.10;;;;;;;11.50;83.23;100238.13;5034974;28;20504;-87
2021/07/30 04:52:21;;;;;;;0.13;0.13;;;;;;;11.54;81.83;100230.16;5033199;28;20053;-88
2021/07/30 04:54:55;;;;;;;0.10;0.10;;;;;;;11.81;81.13;100232.16;5034902;28;20034;-87
2021/07/30 04:57:28;;;;;;;0.10;0.10;;;;;;;11.95;80.64;100236.88;5034909;28;20060;-88
2021/07/30 05:00:04;;;;;;;0.20;0.20;;;;;;;12.06;80.45;100224.69;5027932;28;20056;-87
2021/07/30 05:02:37;;;;;;;0.10;0.10;;;;;;;12.06;80.43;100232.84;5044495;28;20048;-86
2021/07/30 05:05:10;;;;;;;0.20;0.20;;;;;;;12.05;80.90;100233.97;5032210;28;20237;-86
2021/07/30 05:07:39;;;;;;;0.10;0.10;;;;;;;12.07;80.56;100234.47;5035093;28;20045;-88
2021/07/30 05:10:12;;;;;;;0.10;0.10;;;;;;;12.28;79.47;100243.09;5032275;28;20060;-87
2021/07/30 05:12:45;;;;;;;0.20;0.20;;;;;;;12.46;79.69;100235.13;5021123;28;20049;-87
2021/07/30 05:15:20;;;;;;;0.10;0.10;;;;;;;12.62;77.12;100230.94;5033025;28;20050;-86
2021/07/30 05:17:53;;;;;;;0.30;0.30;;;;;;;13.91;72.23;100217.09;5033564;28;20061;-88
2021/07/30 05:20:26;;;;;;;0.20;0.20;;;;;;;15.64;67.30;100222.44;5034169;28;20037;-88
2021/07/30 05:22:59;;;;;;;0.20;0.20;;;;;;;16.42;65.69;100226.06;5030596;28;20473;-87
2021/07/30 05:25:33;;;;;;;0.20;0.20;;;;;;;16.90;63.28;100232.31;5026142;28;20406;-89
2021/07/30 05:28:01;;;;;;;0.17;0.17;;;;;;;17.08;62.53;100211.81;5029850;28;20494;-89
2021/07/30 05:30:36;;;;;;;0.20;0.20;;;;;;;17.28;62.81;100218.44;5039921;28;20049;-87
2021/07/30 05:33:05;;;;;;;0.20;0.20;;;;;;;17.77;60.56;100223.34;5021053;28;20064;-86
2021/07/30 05:35:42;;;;;;;0.15;0.15;;;;;;;17.98;58.72;100215.03;5022968;28;20494;-87
2021/07/30 05:38:10;;;;;;;0.20;0.20;;;;;;;18.25;59.15;100217.47;5028827;28;20495;-87
2021/07/30 05:40:44;;;;;;;0.20;0.20;;;;;;;17.01;62.01;100225.28;5028056;28;20061;-86
2021/07/30 05:43:17;;;;;;;0.10;0.10;;;;;;;16.40;64.03;100223.66;5041182;28;20049;-87
2021/07/30 05:45:47;;;;;;;0.10;0.10;;;;;;;15.98;67.16;100226.25;5032824;28;20037;-87
2021/07/30 05:48:22;;;;;;;0.10;0.10;;;;;;;16.05;68.69;100226.56;5032746;28;20505;-87
2021/07/30 05:50:54;;;;;;;0.17;0.17;;;;;;;16.27;67.32;100228.25;5032946;28;20057;-87
2021/07/30 05:53:28;;;;;;;0.20;0.20;;;;;;;15.65;67.73;100229.53;5033680;28;20049;-87
2021/07/30 05:56:02;;;;;;;0.10;0.10;;;;;;;15.59;70.47;100239.03;5032221;28;20052;-87
2021/07/30 05:58:31;;;;;;;0.10;0.10;;;;;;;15.59;69.96;100219.84;5029514;28;20064;-87
2021/07/30 06:01:06;;;;;;;0.10;0.10;;;;;;;15.08;69.06;100225.84;5029733;28;20046;-87
2021/07/30 06:03:39;;;;;;;0.13;0.13;;;;;;;15.06;70.05;100232.78;5032637;28;20061;-87
2021/07/30 06:06:09;;;;;;;0.10;0.10;;;;;;;15.25;70.18;100218.75;5018528;28;20104;-87
2021/07/30 06:08:37;;;;;;;0.10;0.10;;;;;;;15.35;70.66;100232.13;5031422;28;20059;-88
2021/07/30 06:11:10;;;;;;;0.10;0.10;;;;;;;15.12;72.72;100226.00;5031588;28;20053;-85
2021/07/30 06:13:41;;;;;;;0.10;0.10;;;;;;;15.22;70.36;100225.69;5028936;28;20057;-87
2021/07/30 06:16:16;;;;;;;0.17;0.17;;;;;;;15.37;69.65;100229.88;5031486;28;20041;-87
2021/07/30 06:18:45;;;;;;;0.10;0.10;;;;;;;15.30;72.43;100211.19;5040062;28;20058;-86
2021/07/30 06:21:20;;;;;;;0.20;0.20;;;;;;;15.51;71.54;100221.47;5024694;28;20057;-87
2021/07/30 06:23:53;;;;;;;0.10;0.10;;;;;;;15.57;70.45;100227.59;5020696;28;20061;-86
2021/07/30 06:26:28;;;;;;;0.10;0.10;;;;;;;15.62;69.24;100224.69;5024454;28;20049;-87
2021/07/30 06:28:56;;;;;;;0.10;0.10;;;;;;;15.47;68.69;100234.22;5031639;28;20049;-88
2021/07/30 06:31:31;;;;;;;0.13;0.13;;;;;;;15.63;70.14;100232.59;5027985;28;20064;-87
2021/07/30 06:33:59;;;;;;;0.10;0.10;;;;;;;15.72;71.70;100223.56;5022906;28;20482;-90
2021/07/30 06:36:27;;;;;;;0.20;0.20;;;;;;;15.84;71.81;100220.97;5026212;28;20041;-86
2021/07/30 06:39:01;;;;;;;0.20;0.20;;;;;;;15.74;69.75;100232.25;5029575;28;20487;-88
2021/07/30 06:41:34;;;;;;;0.10;0.10;;;;;;;15.77;69.59;100226.94;5029027;28;20838;-87
2021/07/30 06:44:10;;;;;;;0.10;0.10;;;;;;;15.81;69.15;100227.91;5030677;28;20056;-88
2021/07/30 06:46:41;;;;;;;0.10;0.10;;;;;;;15.94;72.73;100225.31;5026317;28;20426;-88
2021/07/30 06:49:20;;;;;;;0.10;0.10;;;;;;;15.94;70.53;100226.09;5029037;28;20049;-88
2021/07/30 06:51:54;;;;;;;0.10;0.10;;;;;;;16.13;72.85;100216.69;5024471;28;20060;-85
2021/07/30 06:54:33;;;;;;;0.17;0.17;;;;;;;16.27;73.17;100219.22;5023707;28;20056;-86
2021/07/30 06:57:06;;;;;;;0.15;0.15;;;;;;;16.26;68.39;100220.34;5036030;28;20056;-86
2021/07/30 06:59:34;;;;;;;0.15;0.15;;;;;;;16.31;69.22;100201.75;4954317;28;20065;-86
2021/07/30 07:02:05;;;;;;;0.10;0.10;;;;;;;16.38;68.98;100217.72;5000955;28;20060;-88
2021/07/30 07:04:34;;;;;;;0.10;0.10;;;;;;;16.43;68.91;100206.53;5005815;28;20046;-87
2021/07/30 07:07:08;;;;;;;0.20;0.20;;;;;;;16.77;70.79;100210.22;4997490;28;20072;-86
2021/07/30 07:09:41;;;;;;;0.10;0.10;;;;;;;16.67;68.88;100216.09;4999918;28;20045;-88
2021/07/30 07:12:14;;;;;;;0.10;0.10;;;;;;;16.82;69.75;100218.28;5001331;28;20057;-88
2021/07/30 07:14:44;;;;;;;0.10;0.10;;;;;;;16.90;68.60;100219.34;5012034;28;20100;-85
2021/07/30 07:17:19;;;;;;;0.20;0.20;;;;;;;16.91;66.98;100209.97;5001092;28;20057;-85
2021/07/30 07:20:17;;;;;;;0.10;0.10;;;;;;;16.95;66.76;100215.63;5008341;28;20063;-86
2021/07/30 07:22:47;;;;;;;0.10;0.10;;;;;;;17.15;69.02;100208.50;5002797;28;20049;-85
2021/07/30 07:25:15;;;;;;;0.10;0.10;;;;;;;17.16;66.52;100201.88;5016296;28;20065;-84
2021/07/30 07:27:54;;;;;;;0.10;0.10;;;;;;;17.25;68.35;100210.03;5003105;28;20045;-86
2021/07/30 07:30:22;;;;;;;0.20;0.20;;;;;;;17.48;67.47;100213.25;5004360;28;20058;-86
2021/07/30 07:32:59;;;;;;;0.10;0.10;;;;;;;17.56;65.81;100204.09;4996623;28;20375;-86
2021/07/30 07:35:34;;;;;;;0.10;0.10;;;;;;;17.80;67.07;100197.06;5011160;28;20049;-86
2021/07/30 07:38:34;;;;;;;0.20;0.20;;;;;;;17.58;64.09;100203.75;5002787;28;20061;-85
2021/07/30 07:41:15;;;;;;;0.20;0.20;;;;;;;17.78;66.28;100193.84;5001654;28;20050;-86
2021/07/30 07:43:47;;;;;;;0.10;0.10;;;;;;;17.87;65.58;100202.00;4998211;28;20049;-85
2021/07/30 07:46:23;;;;;;;0.10;0.10;;;;;;;17.78;63.52;100202.13;4997726;28;20053;-86
2021/07/30 07:49:00;;;;;;;0.20;0.20;;;;;;;17.73;64.74;100194.88;4997121;28;20066;-87
2021/07/30 07:51:33;;;;;;;0.20;0.20;;;;;;;17.92;66.34;100190.81;5001956;28;20046;-86
2021/07/30 07:54:07;;;;;;;0.20;0.20;;;;;;;18.11;66.01;100193.81;4997654;28;20076;-87
2021/07/30 07:56:35;;;;;;;0.10;0.10;;;;;;;18.16;65.40;100192.78;4997048;28;20070;-87
2021/07/30 07:59:11;;;;;;;0.20;0.20;;;;;;;18.39;67.64;100193.13;4986017;28;20058;-86
2021/07/30 08:01:49;;;;;;;0.10;0.10;;;;;;;18.46;63.72;100184.28;5010482;28;20077;-88
2021/07/30 08:04:24;;;;;;;0.20;0.20;;;;;;;18.66;62.21;100180.59;5006961;28;20050;-89
2021/07/30 08:06:53;;;;;;;0.20;0.20;;;;;;;18.69;63.28;100190.94;5008827;28;20042;-88
2021/07/30 08:09:26;;;;;;;0.10;0.10;;;;;;;18.30;61.52;100197.97;5005852;28;20060;-89
2021/07/30 08:11:59;;;;;;;0.15;0.15;;;;;;;18.17;63.57;100191.63;5017663;28;20049;-87
2021/07/30 08:14:33;;;;;;;0.10;0.10;;;;;;;18.64;62.90;100191.19;5008891;28;20414;-90
2021/07/30 08:17:06;;;;;;;0.17;0.17;;;;;;;18.70;64.92;100189.78;5006429;28;20065;-85
2021/07/30 08:19:42;;;;;;;0.10;0.10;;;;;;;18.82;65.26;100180.69;5010917;28;20056;-88
2021/07/30 08:22:15;;;;;;;0.20;0.20;;;;;;;19.07;61.39;100193.63;5006637;28;20053;-87
2021/07/30 08:24:45;;;;;;;0.20;0.20;;;;;;;18.88;61.95;100181.28;4997088;28;20065;-86
2021/07/30 08:27:14;;;;;;;0.20;0.20;;;;;;;19.16;62.76;100197.84;4998001;28;20042;-87
2021/07/30 08:29:43;;;;;;;0.20;0.20;;;;;;;19.32;60.92;100191.59;5001764;28;20042;-87
2021/07/30 08:32:17;;;;;;;0.20;0.20;;;;;;;19.42;61.16;100198.59;5004738;28;20061;-87
2021/07/30 08:34:52;;;;;;;0.15;0.15;;;;;;;19.27;57.42;100200.13;5003567;28;20396;-86
2021/07/30 08:37:26;;;;;;;0.30;0.20;;;;;;;19.31;59.54;100193.56;5001816;28;20053;-86
2021/07/30 08:40:00;;;;;;;0.10;0.10;;;;;;;19.43;60.23;100189.13;4997453;28;20643;-87
2021/07/30 08:42:37;;;;;;;0.20;0.20;;;;;;;19.59;58.82;100198.25;4999905;28;20053;-86
2021/07/30 08:45:08;;;;;;;0.20;0.20;;;;;;;19.71;59.00;100200.94;5000811;28;20066;-88
2021/07/30 08:47:47;;;;;;;0.17;0.17;;;;;;;19.55;57.39;100194.59;4997156;28;20050;-88
2021/07/30 08:50:17;;;;;;;0.10;0.10;;;;;;;19.53;57.03;100197.69;5001939;28;20054;-87
2021/07/30 08:52:57;;;;;;;0.20;0.20;;;;;;;19.69;58.34;100202.44;5000635;28;20061;-88
2021/07/30 08:55:31;;;;;;;0.20;0.20;;;;;;;19.44;60.47;100191.53;4997891;28;20066;-87
2021/07/30 08:58:08;;;;;;;0.10;0.10;;;;;;;19.66;55.03;100200.41;5005569;28;20057;-87
2021/07/30 09:00:41;;;;;;;0.17;0.17;;;;;;;19.80;56.80;100202.75;5004103;28;20069;-87
2021/07/30 09:03:10;;;;;;;0.10;0.10;;;;;;;19.66;54.71;100206.72;5011478;28;20103;-87
2021/07/30 09:05:47;;;;;;;0.10;0.10;;;;;;;19.44;57.96;100191.53;5008008;28;20648;-87
2021/07/30 09:08:25;;;;;;;0.10;0.10;;;;;;;19.51;54.86;100197.25;5003358;28;20729;-86
2021/07/30 09:10:58;;;;;;;0.10;0.10;;;;;;;19.95;57.20;100199.22;5014576;28;20069;-86
2021/07/30 09:13:28;;;;;;;0.20;0.20;;;;;;;20.22;55.90;100202.25;5015746;28;20073;-86
2021/07/30 09:16:04;;;;;;;0.10;0.10;;;;;;;20.19;54.33;100192.72;5003858;28;20064;-88
2021/07/30 09:19:05;;;;;;;0.15;0.15;;;;;;;20.10;53.37;100185.78;5009448;28;20042;-88
2021/07/30 09:21:40;;;;;;;0.20;0.20;;;;;;;20.12;53.07;100184.28;5001694;28;20418;-86
2021/07/30 09:24:15;;;;;;;0.20;0.20;;;;;;;19.98;51.68;100187.47;5012070;28;20060;-88
2021/07/30 09:26:50;;;;;;;0.10;0.10;;;;;;;20.17;52.19;100189.50;5006584;28;20066;-85
2021/07/30 09:29:26;;;;;;;0.20;0.20;;;;;;;20.22;50.97;100191.22;5004497;28;20056;-88
2021/07/30 09:32:01;;;;;;;0.10;0.10;;;;;;;20.13;54.39;100196.09;5002278;28;21352;-86
2021/07/30 09:34:37;;;;;;;0.10;0.10;;;;;;;20.24;52.15;100186.13;5009967;28;20060;-86
2021/07/30 09:37:14;;;;;;;0.10;0.10;;;;;;;20.02;51.85;100180.09;5000570;28;20049;-87
2021/07/30 09:39:52;;;;;;;0.20;0.20;;;;;;;20.29;51.36;100176.78;5005598;28;20057;-88
2021/07/30 09:42:30;;;;;;;0.10;0.10;;;;;;;20.48;52.06;100159.44;5000247;28;20056;-87
2021/07/30 09:45:13;;;;;;;0.20;0.20;;;;;;;20.32;51.05;100178.81;5000474;28;20049;-84
2021/07/30 09:47:48;;;;;;;0.20;0.20;;;;;;;20.52;50.14;100172.19;4998947;28;20112;-86
2021/07/30 09:50:22;;;;;;;0.10;0.10;;;;;;;20.39;49.91;100170.69;5003457;28;20406;-85
2021/07/30 09:53:01;;;;;;;0.10;0.10;;;;;;;20.26;53.21;100172.75;5000793;28;20049;-85
2021/07/30 09:55:36;;;;;;;0.10;0.10;;;;;;;20.55;51.32;100168.69;5004273;28;20071;-86
2021/07/30 09:58:10;;;;;;;0.10;0.10;;;;;;;20.81;50.52;100163.75;5001584;28;20421;-86
2021/07/30 10:00:45;;;;;;;0.10;0.10;;;;;;;20.71;50.55;100184.47;4998828;28;20442;-86
2021/07/30 10:03:18;;;;;;;0.20;0.20;;;;;;;20.37;49.95;100176.56;5000231;28;20061;-86
2021/07/30 10:05:53;;;;;;;0.20;0.20;;;;;;;20.52;48.01;100152.84;4994287;28;20058;-91
2021/07/30 10:08:28;;;;;;;0.10;0.10;;;;;;;21.00;48.54;100168.50;4998499;28;20053;-85
2021/07/30 10:10:57;;;;;;;0.10;0.10;;;;;;;21.02;46.64;100171.72;4995137;28;20054;-84
2021/07/30 10:13:37;;;;;;;0.10;0.10;;;;;;;21.06;46.92;100154.00;4994505;28;20053;-87
2021/07/30 10:16:10;;;;;;;0.10;0.10;;;;;;;21.43;52.22;100163.00;5000908;28;20044;-86
2021/07/30 10:18:50;;;;;;;0.10;0.10;;;;;;;21.42;46.23;100167.75;5003215;28;20052;-84
2021/07/30 10:21:27;;;;;;;0.10;0.10;;;;;;;21.07;46.70;100152.03;4996745;28;20733;-86
2021/07/30 10:24:03;;;;;;;0.10;0.10;;;;;;;21.13;46.93;100150.59;5011755;28;20526;-86
2021/07/30 10:26:36;;;;;;;0.10;0.10;;;;;;;21.10;48.80;100153.28;4993043;28;20311;-86
2021/07/30 10:29:07;;;;;;;0.10;0.10;;;;;;;20.54;48.53;100147.72;4995409;28;20694;-86
2021/07/30 10:31:49;;;;;;;0.13;0.13;;;;;;;20.93;48.29;100140.69;4993372;28;20053;-85
2021/07/30 10:34:47;;;;;;;0.10;0.10;;;;;;;21.30;46.22;100137.47;4999702;28;20493;-83
2021/07/30 10:37:34;;;;;;;0.20;0.20;;;;;;;21.42;44.71;100140.06;4995694;28;20055;-88
2021/07/30 10:40:23;;;;;;;0.10;0.10;;;;;;;21.52;44.90;100142.25;4993908;28;20064;-85
2021/07/30 10:43:04;;;;;;;0.20;0.20;;;;;;;21.81;46.31;100139.19;4994428;28;20057;-86
2021/07/30 10:45:39;;;;;;;0.10;0.10;;;;;;;21.63;46.29;100134.16;4994411;28;20663;-85
2021/07/30 10:48:33;;;;;;;0.10;0.10;;;;;;;21.41;49.38;100135.69;4998355;28;20719;-86
2021/07/30 10:51:24;;;;;;;0.20;0.20;;;;;;;21.33;46.86;100134.75;4998382;28;20057;-85
2021/07/30 10:53:59;;;;;;;0.20;0.20;;;;;;;21.15;44.86;100131.66;5005349;28;20053;-86
2021/07/30 10:56:42;;;;;;;0.20;0.20;;;;;;;20.99;47.19;100117.09;4996066;28;20049;-85
2021/07/30 10:59:12;;;;;;;0.10;0.10;;;;;;;21.36;46.44;100131.28;4995783;28;20057;-87
2021/07/30 11:02:00;;;;;;;0.20;0.20;;;;;;;21.65;47.94;100129.03;4996398;28;20052;-86
2021/07/30 11:04:36;;;;;;;0.10;0.10;;;;;;;21.53;44.82;100127.25;4998310;28;20049;-85
2021/07/30 11:07:08;;;;;;;0.10;0.10;;;;;;;21.67;45.36;100132.25;4985258;28;20065;-85
2021/07/30 11:09:42;;;;;;;0.10;0.10;;;;;;;21.60;45.84;100134.88;4995547;28;20049;-85
2021/07/30 11:12:17;;;;;;;0.00;0.00;;;;;;;21.48;47.36;100108.13;4995332;28;20053;-85
2021/07/30 11:14:51;;;;;;;0.10;0.10;;;;;;;21.49;45.80;100122.78;4999931;28;20751;-85
2021/07/30 11:17:25;;;;;;;0.20;0.20;;;;;;;21.67;48.21;100118.41;5006852;28;20049;-86
2021/07/30 11:20:03;;;;;;;0.00;0.00;;;;;;;21.80;45.28;100105.16;4997884;28;20494;-86
2021/07/30 11:22:43;;;;;;;0.10;0.10;;;;;;;21.95;46.23;100114.50;4996068;28;20060;-85
2021/07/30 11:25:20;;;;;;;0.10;0.10;;;;;;;22.18;45.21;100102.56;5001231;28;20437;-86
2021/07/30 11:27:59;;;;;;;0.10;0.10;;;;;;;22.19;44.51;100110.53;4994058;28;20054;-84
2021/07/30 11:30:33;;;;;;;0.10;0.10;;;;;;;22.06;44.23;100107.16;4994455;28;20627;-86
2021/07/30 11:33:06;;;;;;;0.10;0.10;;;;;;;21.83;43.58;100106.38;4994060;28;20064;-86
2021/07/30 11:35:40;;;;;;;0.10;0.10;;;;;;;21.89;44.74;100097.41;4995158;28;20069;-87
2021/07/30 11:38:13;;;;;;;0.20;0.20;;;;;;;21.84;44.22;100111.56;4995287;28;20053;-86
2021/07/30 11:41:06;;;;;;;0.10;0.10;;;;;;;21.82;46.51;100104.78;4996049;28;20049;-85
2021/07/30 11:43:59;;;;;;;0.10;0.10;;;;;;;21.49;46.43;100097.84;5000253;28;20049;-85
2021/07/30 11:46:33;;;;;;;0.10;0.10;;;;;;;21.74;45.48;100106.66;5000688;28;20063;-86
2021/07/30 11:49:08;;;;;;;0.10;0.10;;;;;;;21.81;48.67;100104.00;4995583;28;20587;-84
2021/07/30 11:51:41;;;;;;;0.20;0.20;;;;;;;21.72;43.71;100097.91;4991158;28;20050;-85
2021/07/30 11:54:23;;;;;;;0.10;0.10;;;;;;;21.34;43.94;100111.44;4996891;28;20050;-86
2021/07/30 11:56:57;;;;;;;0.10;0.10;;;;;;;21.36;44.36;100103.59;4994290;28;20885;-85
2021/07/30 11:59:45;;;;;;;0.10;0.10;;;;;;;21.44;46.29;100107.28;4997058;28;20057;-87